DTTB

Details ICAO DTTB
Name SIDI AHMED AIR BASE
Region Tunisia
Timezone Africa/Tunis (UTC+1.0)
Plans Departing 10
Arriving 9
Stats Elevation 20 ft / 6 m (AMSL)
Location 37.244723° 9.792761°
Runways 2
Magnetic Variation 2.389° E
Sunrise 2018-05-20 04:10:01 UTC / 2018-05-20 05:10:01 Local
Sunset 2018-05-20 18:27:31 UTC / 2018-05-20 19:27:31 Local
Advertisement - Login to hide

Runways

ID Width Length Bearing (true) Bearing (mag) Surface Threshold Offset Overrun Length
08 166 ft / 51 m 9,825 ft / 2,995 m 81.89° 79.50° Asphalt 0 ft / 0 m 1,145 ft / 349 m
11 164 ft / 50 m 3,969 ft / 1,210 m 110.85° 108.46° Concrete 0 ft / 0 m 0 ft / 0 m
26 166 ft / 51 m 9,825 ft / 2,995 m 261.91° 259.52° Asphalt 0 ft / 0 m 0 ft / 0 m
29 164 ft / 50 m 3,969 ft / 1,210 m 290.86° 288.47° Concrete 0 ft / 0 m 0 ft / 0 m

Map

Weather


0- 5 10 15 20 25 30 35+ Temperature / ° C

Clouds and Precipitation
Forecast for 2018-05-20 12:00 UTC. Updated 2 hours ago

Ground ~20,000 ft ~40,000 ft Winds

METAR

DTTB 201000Z 09007KT 050V110 9999 FEW020 22/15 Q1013

TAF

Not found
Warning: Do not use this data for real-world aviation or navigation. No guarantee of current accuracy is given.